createdAt,value
2018-07-08T00:02:25.616Z,97.50
2018-07-08T00:04:52.980Z,97.60
2018-07-08T00:07:34.350Z,97.70
2018-07-08T00:13:24.595Z,97.60
2018-07-08T00:15:54.968Z,97.50
2018-07-08T00:18:30.135Z,97.60
2018-07-08T00:21:02.502Z,97.60
2018-07-08T00:23:35.322Z,97.40
2018-07-08T00:26:10.468Z,97.50
2018-07-08T00:28:42.654Z,97.60
2018-07-08T00:31:13.029Z,97.80
2018-07-08T00:33:44.177Z,98.10
2018-07-08T00:36:17.333Z,97.90
2018-07-08T00:38:54.609Z,97.90
2018-07-08T00:42:23.579Z,98.60
2018-07-08T00:45:18.684Z,98.40
2018-07-08T00:53:49.083Z,99.30
2018-07-08T00:57:08.169Z,99.70
2018-07-08T00:59:39.639Z,99.90
2018-07-08T01:08:39.882Z,99.70
2018-07-08T01:23:19.784Z,99.50
2018-07-08T01:26:07.573Z,99.40
2018-07-08T01:28:37.957Z,99.50
2018-07-08T01:34:25.691Z,99.90
2018-07-08T01:37:08.442Z,99.90
2018-07-08T01:39:39.581Z,99.90
2018-07-08T01:42:10.983Z,99.90
2018-07-08T01:44:42.381Z,99.90
2018-07-08T01:47:16.392Z,99.90
2018-07-08T01:49:50.077Z,99.90
2018-07-08T01:52:20.447Z,99.90
2018-07-08T01:54:50.828Z,99.90
2018-07-08T01:57:22.186Z,99.90
2018-07-08T01:59:53.617Z,99.90
2018-07-08T02:02:24.008Z,99.90
2018-07-08T02:04:54.388Z,99.90
2018-07-08T02:07:35.341Z,99.90
2018-07-08T02:10:08.237Z,99.90
2018-07-08T02:12:43.704Z,99.90
2018-07-08T02:15:23.315Z,99.90
2018-07-08T02:18:03.147Z,99.90
2018-07-08T02:21:21.187Z,99.90
2018-07-08T02:24:22.123Z,99.90
2018-07-08T02:27:31.210Z,99.90
2018-07-08T02:30:02.396Z,99.90
2018-07-08T02:32:32.785Z,99.90
2018-07-08T02:35:10.008Z,99.90
2018-07-08T02:37:57.487Z,99.90
2018-07-08T02:40:35.364Z,99.90
2018-07-08T02:56:51.946Z,99.90
2018-07-08T02:59:27.272Z,99.90
2018-07-08T03:02:08.512Z,99.90
2018-07-08T03:07:27.670Z,99.90
2018-07-08T03:10:00.835Z,99.90
2018-07-08T03:12:33.303Z,99.90
2018-07-08T03:15:39.985Z,99.90
2018-07-08T03:18:12.808Z,99.90
2018-07-08T03:20:48.563Z,99.90
2018-07-08T03:23:22.327Z,99.90
2018-07-08T03:26:03.964Z,99.90
2018-07-08T03:29:34.923Z,99.90
2018-07-08T03:31:41.286Z,99.90
2018-07-08T03:34:19.820Z,99.90
2018-07-08T03:36:50.339Z,99.90
2018-07-08T03:39:40.310Z,99.90
2018-07-08T03:42:10.685Z,99.90
2018-07-08T03:44:41.057Z,99.90
2018-07-08T03:47:12.425Z,99.90
2018-07-08T03:49:42.807Z,99.90
2018-07-08T03:52:14.289Z,99.90
2018-07-08T03:54:45.028Z,99.90
2018-07-08T03:57:15.399Z,99.90
2018-07-08T03:59:46.645Z,99.90
2018-07-08T04:02:17.035Z,99.90
2018-07-08T04:04:47.408Z,99.90
2018-07-08T04:07:17.776Z,99.90
2018-07-08T04:10:09.028Z,99.90
2018-07-08T04:12:39.837Z,99.90
2018-07-08T04:15:10.310Z,99.90
2018-07-08T04:17:46.222Z,99.90
2018-07-08T04:20:24.080Z,99.90
2018-07-08T04:22:54.464Z,99.90
2018-07-08T04:25:24.836Z,99.90
2018-07-08T04:27:55.216Z,99.90
2018-07-08T04:30:25.757Z,99.90
2018-07-08T04:32:56.011Z,99.90
2018-07-08T04:35:26.375Z,99.90
2018-07-08T04:38:01.143Z,99.90
2018-07-08T04:40:31.671Z,99.90
2018-07-08T04:43:02.092Z,99.90
2018-07-08T04:45:32.658Z,99.90
2018-07-08T04:48:04.959Z,99.90
2018-07-08T04:50:35.495Z,99.90
2018-07-08T04:53:05.044Z,99.90
2018-07-08T04:59:14.677Z,99.90
2018-07-08T05:02:08.640Z,99.90
2018-07-08T05:04:47.113Z,99.90
2018-07-08T05:07:17.651Z,99.90
2018-07-08T05:09:48.980Z,99.90
2018-07-08T05:12:19.362Z,99.90
2018-07-08T05:14:51.516Z,99.90
2018-07-08T05:17:35.678Z,99.90
2018-07-08T05:20:05.950Z,99.90
2018-07-08T05:22:45.093Z,99.90
2018-07-08T05:28:12.183Z,99.90
2018-07-08T05:30:42.574Z,99.90
2018-07-08T05:33:13.972Z,99.90
2018-07-08T05:35:44.444Z,99.90
2018-07-08T05:38:15.789Z,99.90
2018-07-08T05:40:46.157Z,99.90
2018-07-08T05:43:17.550Z,99.90
2018-07-08T05:45:48.699Z,99.90
2018-07-08T05:48:22.661Z,99.90
2018-07-08T05:51:07.102Z,99.90
2018-07-08T05:53:42.592Z,99.90
2018-07-08T06:09:19.040Z,99.90
2018-07-08T06:11:42.938Z,99.90
2018-07-08T06:20:00.728Z,99.90
2018-07-08T06:22:47.027Z,99.90
2018-07-08T06:25:49.801Z,99.90
2018-07-08T06:28:40.550Z,99.90
2018-07-08T06:31:14.576Z,99.90
2018-07-08T06:33:44.950Z,99.90
2018-07-08T06:36:15.766Z,99.90
2018-07-08T06:38:49.920Z,99.90
2018-07-08T06:41:24.802Z,99.90
2018-07-08T06:43:57.433Z,99.90
2018-07-08T06:46:27.806Z,99.90
2018-07-08T06:49:01.872Z,99.90
2018-07-08T06:51:47.491Z,99.90
2018-07-08T06:54:20.797Z,99.90
2018-07-08T06:56:51.870Z,99.90
2018-07-08T06:59:22.264Z,99.90
2018-07-08T07:01:55.215Z,99.90
2018-07-08T07:04:25.647Z,99.90
2018-07-08T07:06:56.025Z,99.90
2018-07-08T07:09:28.818Z,99.90
2018-07-08T07:12:06.938Z,99.90
2018-07-08T07:14:37.261Z,99.90
2018-07-08T07:17:07.573Z,99.90
2018-07-08T07:19:45.209Z,99.90
2018-07-08T07:22:17.642Z,99.90
2018-07-08T07:24:58.210Z,99.90
2018-07-08T07:27:28.597Z,99.90
2018-07-08T07:30:01.926Z,99.90
2018-07-08T07:32:32.311Z,99.90
2018-07-08T07:35:02.707Z,99.90
2018-07-08T07:37:33.089Z,99.90
2018-07-08T07:40:03.471Z,99.90
2018-07-08T07:42:33.858Z,99.90
2018-07-08T07:45:05.182Z,99.90
2018-07-08T07:47:36.576Z,99.90
2018-07-08T07:50:11.300Z,99.90
2018-07-08T07:52:41.691Z,99.90
2018-07-08T07:55:12.062Z,97.70
2018-07-08T07:57:42.446Z,98.60
2018-07-08T08:00:14.871Z,98.40
2018-07-08T08:02:45.261Z,98.80
2018-07-08T08:05:15.636Z,98.10
2018-07-08T08:07:46.024Z,98.20
2018-07-08T08:10:16.411Z,98.50
2018-07-08T08:12:46.814Z,98.30
2018-07-08T08:15:17.212Z,98.80
2018-07-08T08:17:48.355Z,95.10
2018-07-08T08:20:19.527Z,95.60
2018-07-08T08:22:50.540Z,95.50
2018-07-08T08:25:24.455Z,94.80
2018-07-08T08:27:55.551Z,96.10
2018-07-08T08:30:33.094Z,96.00
2018-07-08T08:33:03.485Z,94.40
2018-07-08T08:35:38.914Z,95.00
2018-07-08T08:38:13.574Z,95.10
2018-07-08T08:40:43.938Z,93.90
2018-07-08T08:43:15.090Z,93.00
2018-07-08T08:45:48.107Z,94.60
2018-07-08T08:48:23.504Z,91.60
2018-07-08T08:50:54.662Z,92.50
2018-07-08T08:53:25.034Z,92.50
2018-07-08T08:55:55.525Z,93.00
2018-07-08T08:58:27.169Z,93.40
2018-07-08T09:00:57.397Z,93.60
2018-07-08T09:03:29.828Z,94.40
2018-07-08T09:06:00.421Z,94.00
2018-07-08T09:08:30.794Z,93.60
2018-07-08T09:11:01.179Z,94.00
2018-07-08T09:13:33.627Z,93.60
2018-07-08T09:16:04.492Z,94.10
2018-07-08T09:21:25.235Z,93.60
2018-07-08T09:23:55.674Z,93.50
2018-07-08T09:26:25.993Z,94.20
2018-07-08T09:28:58.304Z,94.10
2018-07-08T09:32:01.362Z,93.50
2018-07-08T09:34:31.755Z,94.10
2018-07-08T09:37:04.507Z,93.10
2018-07-08T09:39:34.900Z,93.10
2018-07-08T09:42:05.334Z,93.50
2018-07-08T09:44:40.218Z,94.60
2018-07-08T09:47:10.547Z,93.30
2018-07-08T09:49:40.908Z,94.00
2018-07-08T09:52:11.555Z,93.40
2018-07-08T09:54:42.352Z,93.00
2018-07-08T09:57:13.501Z,93.00
2018-07-08T09:59:43.889Z,93.20
2018-07-08T10:02:14.407Z,93.20
2018-07-08T10:04:47.234Z,93.10
2018-07-08T10:07:21.207Z,93.10
2018-07-08T10:09:51.601Z,93.60
2018-07-08T10:12:21.993Z,93.70
2018-07-08T10:14:52.327Z,93.50
2018-07-08T10:17:22.708Z,93.80
2018-07-08T10:19:53.319Z,93.70
2018-07-08T10:22:23.489Z,93.10
2018-07-08T10:24:56.469Z,91.80
2018-07-08T10:27:26.853Z,92.20
2018-07-08T10:30:02.358Z,91.60
2018-07-08T10:32:32.749Z,91.50
2018-07-08T10:35:03.141Z,91.20
2018-07-08T10:37:35.024Z,92.40
2018-07-08T10:40:07.459Z,92.30
2018-07-08T10:42:37.858Z,92.20
2018-07-08T10:45:08.253Z,91.50
2018-07-08T10:47:38.637Z,91.10
2018-07-08T10:50:09.950Z,90.60
2018-07-08T10:52:42.244Z,90.50
2018-07-08T10:55:12.978Z,91.00
2018-07-08T10:57:43.678Z,92.10
2018-07-08T11:00:14.397Z,92.10
2018-07-08T11:02:44.785Z,92.10
2018-07-08T11:05:15.942Z,91.40
2018-07-08T11:07:46.328Z,91.40
2018-07-08T11:10:16.703Z,91.10
2018-07-08T11:12:48.122Z,90.50
2018-07-08T11:15:18.781Z,91.00
2018-07-08T11:17:51.607Z,92.30
2018-07-08T11:20:21.994Z,92.10
2018-07-08T11:22:52.383Z,91.40
2018-07-08T11:25:22.763Z,91.40
2018-07-08T11:27:53.157Z,92.20
2018-07-08T11:30:23.547Z,92.10
2018-07-08T11:32:56.653Z,91.80
2018-07-08T11:35:30.045Z,92.90
2018-07-08T11:38:00.426Z,92.80
2018-07-08T11:40:30.818Z,92.50
2018-07-08T11:43:01.277Z,91.00
2018-07-08T11:45:31.589Z,88.40
2018-07-08T11:48:04.864Z,91.90
2018-07-08T11:50:35.261Z,90.00
2018-07-08T11:53:05.642Z,90.50
2018-07-08T11:55:36.081Z,91.50
2018-07-08T11:58:06.473Z,91.40
2018-07-08T12:00:36.851Z,91.60
2018-07-08T12:03:08.504Z,91.90
2018-07-08T12:05:40.200Z,91.90
2018-07-08T12:08:10.848Z,90.20
2018-07-08T12:10:42.193Z,90.50
2018-07-08T12:13:13.349Z,85.40
2018-07-08T12:15:44.161Z,85.40
2018-07-08T12:18:14.648Z,84.20
2018-07-08T12:20:45.061Z,88.70
2018-07-08T12:23:15.741Z,90.00
2018-07-08T12:25:46.067Z,89.10
2018-07-08T12:28:16.494Z,91.00
2018-07-08T12:30:46.876Z,91.10
2018-07-08T12:33:19.931Z,91.10
2018-07-08T12:35:51.901Z,91.60
2018-07-08T12:38:22.298Z,91.60
2018-07-08T12:40:52.747Z,89.70
2018-07-08T12:43:23.182Z,90.70
2018-07-08T12:45:53.590Z,88.20
2018-07-08T12:48:24.744Z,84.00
2018-07-08T12:50:56.573Z,87.20
2018-07-08T12:53:27.399Z,87.10
2018-07-08T12:55:58.461Z,81.20
2018-07-08T12:58:28.857Z,81.50
2018-07-08T13:00:59.437Z,83.60
2018-07-08T13:06:14.534Z,86.00
2018-07-08T13:08:44.894Z,87.30
2018-07-08T13:11:19.875Z,89.20
2018-07-08T13:13:50.276Z,88.80
2018-07-08T13:16:20.889Z,87.30
2018-07-08T13:18:51.530Z,89.00
2018-07-08T13:21:21.936Z,90.20
2018-07-08T13:23:52.368Z,90.40
2018-07-08T13:26:23.684Z,90.70
2018-07-08T13:28:56.669Z,91.20
2018-07-08T13:31:32.142Z,91.50
2018-07-08T13:34:02.630Z,92.10
2018-07-08T13:36:33.006Z,91.60
2018-07-08T13:39:03.713Z,91.90
2018-07-08T13:41:34.119Z,91.60
2018-07-08T13:44:05.844Z,91.10
2018-07-08T13:46:36.370Z,91.20
2018-07-08T13:49:06.757Z,91.20
2018-07-08T13:51:37.141Z,91.20
2018-07-08T13:54:09.573Z,91.00
2018-07-08T13:56:41.384Z,89.70
2018-07-08T13:59:11.857Z,89.80
2018-07-08T14:01:44.677Z,88.00
2018-07-08T14:04:15.072Z,86.20
2018-07-08T14:06:48.649Z,89.60
2018-07-08T14:09:19.867Z,90.00
2018-07-08T14:11:50.560Z,91.20
2018-07-08T14:14:22.418Z,90.30
2018-07-08T14:16:55.585Z,91.30
2018-07-08T14:19:26.210Z,92.30
2018-07-08T14:21:56.524Z,92.50
2018-07-08T14:24:27.776Z,92.30
2018-07-08T14:26:58.156Z,92.20
2018-07-08T14:29:33.445Z,91.40
2018-07-08T14:32:10.569Z,92.30
2018-07-08T14:34:42.181Z,92.00
2018-07-08T14:37:13.503Z,92.60
2018-07-08T14:39:43.899Z,92.70
2018-07-08T14:42:14.284Z,92.90
2018-07-08T14:44:46.019Z,93.40
2018-07-08T14:47:19.942Z,93.30
2018-07-08T14:49:50.519Z,93.10
2018-07-08T14:52:20.908Z,92.80
2018-07-08T14:54:52.421Z,92.10
2018-07-08T14:57:22.806Z,91.50
2018-07-08T14:59:53.182Z,91.30
2018-07-08T15:02:23.565Z,91.60
2018-07-08T15:04:53.937Z,92.80
2018-07-08T15:07:24.804Z,93.10
2018-07-08T15:09:55.566Z,90.40
2018-07-08T15:12:26.798Z,92.00
2018-07-08T15:15:01.550Z,92.40
2018-07-08T15:17:35.205Z,92.40
2018-07-08T15:20:05.581Z,92.90
2018-07-08T15:25:24.165Z,92.30
2018-07-08T15:28:01.310Z,93.00
2018-07-08T15:30:33.091Z,93.20
2018-07-08T15:33:03.510Z,93.20
2018-07-08T15:35:36.468Z,93.40
2018-07-08T15:38:09.629Z,93.10
2018-07-08T15:40:41.641Z,92.80
2018-07-08T15:43:13.671Z,92.60
2018-07-08T15:45:47.750Z,93.60
2018-07-08T15:48:18.123Z,93.60
2018-07-08T15:50:51.395Z,93.70
2018-07-08T15:53:23.046Z,93.20
2018-07-08T15:56:13.862Z,93.30
2018-07-08T15:58:44.264Z,93.30
2018-07-08T16:01:14.642Z,93.50
2018-07-08T16:03:45.782Z,93.60
2018-07-08T16:06:16.169Z,93.60
2018-07-08T16:09:05.912Z,93.70
2018-07-08T16:11:40.066Z,93.50
2018-07-08T16:14:32.061Z,93.30
2018-07-08T16:17:03.412Z,93.30
2018-07-08T16:19:33.718Z,92.00
2018-07-08T16:22:04.863Z,93.80
2018-07-08T16:24:35.365Z,93.70
2018-07-08T16:27:09.396Z,94.00
2018-07-08T16:29:40.541Z,93.70
2018-07-08T16:32:11.693Z,92.90
2018-07-08T16:34:44.942Z,92.90
2018-07-08T16:37:16.370Z,92.90
2018-07-08T16:39:48.321Z,92.80
2018-07-08T16:42:18.696Z,93.70
2018-07-08T16:44:49.095Z,93.90
2018-07-08T16:47:23.220Z,93.80
2018-07-08T16:49:59.862Z,94.00
2018-07-08T16:52:30.248Z,93.90
2018-07-08T16:55:00.626Z,94.40
2018-07-08T16:57:30.997Z,94.80
2018-07-08T17:00:01.740Z,94.80
2018-07-08T17:02:34.148Z,94.50
2018-07-08T17:05:05.586Z,94.60
2018-07-08T17:07:39.189Z,94.20
2018-07-08T17:10:10.176Z,94.20
2018-07-08T17:12:42.196Z,94.40
2018-07-08T17:15:12.570Z,94.70
2018-07-08T17:17:42.949Z,94.90
2018-07-08T17:20:13.335Z,94.90
2018-07-08T17:22:44.005Z,94.80
2018-07-08T17:25:15.941Z,93.70
2018-07-08T17:27:47.679Z,93.60
2018-07-08T17:30:20.100Z,93.90
2018-07-08T17:32:50.501Z,94.40
2018-07-08T17:35:23.787Z,93.90
2018-07-08T17:37:57.621Z,93.80
2018-07-08T17:40:28.011Z,93.80
2018-07-08T17:42:58.394Z,93.60
2018-07-08T17:45:28.851Z,94.00
2018-07-08T17:47:59.181Z,94.00
2018-07-08T17:50:35.616Z,94.20
2018-07-08T17:53:06.576Z,94.10
2018-07-08T17:55:36.794Z,94.20
2018-07-08T17:58:10.574Z,94.00
2018-07-08T18:00:40.898Z,94.20
2018-07-08T18:03:11.245Z,94.40
2018-07-08T18:05:42.004Z,93.80
2018-07-08T18:08:14.605Z,94.00
2018-07-08T18:10:44.990Z,93.80
2018-07-08T18:13:15.505Z,93.90
2018-07-08T18:15:46.437Z,94.00
2018-07-08T18:18:16.826Z,93.80
2018-07-08T18:20:47.206Z,93.60
2018-07-08T18:23:17.682Z,93.50
2018-07-08T18:25:47.976Z,93.20
2018-07-08T18:28:27.364Z,93.20
2018-07-08T18:31:01.388Z,93.40
2018-07-08T18:33:32.527Z,93.20
2018-07-08T18:38:50.505Z,92.80
2018-07-08T18:41:23.344Z,93.30
2018-07-08T18:43:53.705Z,93.00
2018-07-08T18:46:24.883Z,93.30
2018-07-08T18:48:55.408Z,93.40
2018-07-08T18:51:26.237Z,93.10
2018-07-08T18:53:58.023Z,93.00
2018-07-08T18:56:49.745Z,93.30
2018-07-08T18:59:23.221Z,93.30
2018-07-08T19:01:53.501Z,93.10
2018-07-08T19:04:23.869Z,93.20
2018-07-08T19:06:58.135Z,93.20
2018-07-08T19:09:31.163Z,93.60
2018-07-08T19:12:02.315Z,93.10
2018-07-08T19:14:32.912Z,93.00
2018-07-08T19:17:19.304Z,93.20
2018-07-08T19:19:51.107Z,92.90
2018-07-08T19:22:21.511Z,93.20
2018-07-08T19:24:59.313Z,92.80
2018-07-08T19:27:29.820Z,93.20
2018-07-08T19:30:00.195Z,93.30
2018-07-08T19:32:32.958Z,92.70
2018-07-08T19:35:04.004Z,92.70
2018-07-08T19:37:37.727Z,93.20
2018-07-08T19:40:12.152Z,93.10
2018-07-08T19:42:46.363Z,93.10
2018-07-08T19:45:22.126Z,92.90
2018-07-08T19:47:51.635Z,93.10
2018-07-08T19:50:26.043Z,93.00
2018-07-08T19:52:56.428Z,93.10
2018-07-08T19:55:29.399Z,93.10
2018-07-08T19:57:59.763Z,93.00
2018-07-08T20:00:32.051Z,92.50
2018-07-08T20:03:03.944Z,92.80
2018-07-08T20:05:34.265Z,92.90
2018-07-08T20:08:07.776Z,92.70
2018-07-08T20:10:41.957Z,93.20
2018-07-08T20:13:15.214Z,92.90
2018-07-08T20:15:45.583Z,92.80
2018-07-08T20:18:15.954Z,92.60
2018-07-08T20:20:50.246Z,92.80
2018-07-08T20:23:29.111Z,93.00
2018-07-08T20:25:59.499Z,93.00
2018-07-08T20:28:33.532Z,92.90
2018-07-08T20:31:30.759Z,92.90
2018-07-08T20:34:01.101Z,92.90
2018-07-08T20:36:31.677Z,93.00
2018-07-08T20:39:02.252Z,92.70
2018-07-08T20:41:35.398Z,92.80
2018-07-08T20:44:07.553Z,92.80
2018-07-08T20:46:37.930Z,92.80
2018-07-08T20:49:08.493Z,93.10
2018-07-08T20:51:38.890Z,93.10
2018-07-08T20:54:09.262Z,93.10
2018-07-08T20:56:39.645Z,93.20
2018-07-08T20:59:13.099Z,92.80
2018-07-08T21:01:43.474Z,93.10
2018-07-08T21:04:17.199Z,93.30
2018-07-08T21:06:49.663Z,93.10
2018-07-08T21:09:20.118Z,93.00
2018-07-08T21:11:50.492Z,93.20
2018-07-08T21:14:20.870Z,93.30
2018-07-08T21:16:51.250Z,93.00
2018-07-08T21:19:21.619Z,93.40
2018-07-08T21:21:52.196Z,93.20
2018-07-08T21:24:23.166Z,93.30
2018-07-08T21:27:15.982Z,93.70
2018-07-08T21:29:46.352Z,93.50
2018-07-08T21:32:16.729Z,93.70
2018-07-08T21:34:48.891Z,93.80
2018-07-08T21:37:20.355Z,93.80
2018-07-08T21:39:51.155Z,93.70
2018-07-08T21:42:21.541Z,93.90
2018-07-08T21:44:51.910Z,93.80
2018-07-08T21:47:22.278Z,93.90
2018-07-08T21:49:52.974Z,93.90
2018-07-08T21:52:23.482Z,93.90
2018-07-08T21:54:53.962Z,93.80
2018-07-08T21:57:24.378Z,93.80
2018-07-08T21:59:54.708Z,94.00
2018-07-08T22:02:25.090Z,94.10
2018-07-08T22:04:56.045Z,94.00
2018-07-08T22:07:27.446Z,94.20
2018-07-08T22:09:57.819Z,94.40
2018-07-08T22:12:28.202Z,94.00
2018-07-08T22:14:58.573Z,94.40
2018-07-08T22:17:29.490Z,94.30
2018-07-08T22:20:00.290Z,94.60
2018-07-08T22:22:31.040Z,94.50
2018-07-08T22:25:04.489Z,94.50
2018-07-08T22:27:35.071Z,94.60
2018-07-08T22:30:06.423Z,94.60
2018-07-08T22:32:38.250Z,94.80
2018-07-08T22:35:09.398Z,94.70
2018-07-08T22:37:39.777Z,94.70
2018-07-08T22:40:10.153Z,94.90
2018-07-08T22:42:42.052Z,94.90
2018-07-08T22:45:17.696Z,94.80
2018-07-08T22:47:52.171Z,95.10
2018-07-08T22:50:22.547Z,94.90
2018-07-08T22:55:43.754Z,95.10
2018-07-08T22:58:14.749Z,95.00
2018-07-08T23:01:24.093Z,94.90
2018-07-08T23:03:55.111Z,95.00
2018-07-08T23:06:26.961Z,94.90
2018-07-08T23:09:19.914Z,94.90
2018-07-08T23:12:09.705Z,94.80
2018-07-08T23:15:00.844Z,94.70
2018-07-08T23:17:31.887Z,94.90
2018-07-08T23:20:02.251Z,94.80
2018-07-08T23:22:32.585Z,94.80
2018-07-08T23:25:03.149Z,94.90
2018-07-08T23:27:34.183Z,95.10
2018-07-08T23:30:10.851Z,94.80
2018-07-08T23:33:03.405Z,94.70
2018-07-08T23:35:33.797Z,95.00
2018-07-08T23:38:05.096Z,94.70
2018-07-08T23:40:37.657Z,94.80
2018-07-08T23:43:28.888Z,95.20
2018-07-08T23:45:59.321Z,94.80
2018-07-08T23:48:29.702Z,95.00
2018-07-08T23:51:00.089Z,95.40
2018-07-08T23:53:31.621Z,95.00
2018-07-08T23:56:02.545Z,95.00
2018-07-08T23:58:52.624Z,94.90
